N410HA KSEZ-KFLG
Flight info
| Callsign | N410HA |
|---|---|
| Flight time | N/A |
| Altitude | 9500 |
| Route | VFR |
| Aircraft | C208/L-VGD/C |
Departure
| Time | 2026-04-25 22:07 |
|---|---|
| Airport | Sedona Airport (KSEZ) |
Arrival
| Time | N/A |
|---|---|
| Airport | Flagstaff Pulliam Airport (KFLG) |
| Time | Latitude | Longitude | Altitude | Speed | Heading |
|---|---|---|---|---|---|
| 2026-04-25 21:56 | 34.84969 | -111.78880 | 4796 ft | 0 kts | 242° |
| 2026-04-25 22:02 | 34.84966 | -111.78884 | 4796 ft | 0 kts | 236° |
| 2026-04-25 22:03 | 34.84965 | -111.78886 | 4795 ft | 0 kts | 234° |
| 2026-04-25 22:03 | 34.84958 | -111.78897 | 4795 ft | 5 kts | 229° |
| 2026-04-25 22:03 | 34.84917 | -111.78909 | 4792 ft | 5 kts | 110° |
| 2026-04-25 22:03 | 34.84948 | -111.78856 | 4795 ft | 9 kts | 45° |
| 2026-04-25 22:04 | 34.85005 | -111.78784 | 4800 ft | 13 kts | 44° |
| 2026-04-25 22:04 | 34.85076 | -111.78696 | 4804 ft | 16 kts | 46° |
| 2026-04-25 22:04 | 34.85159 | -111.78593 | 4810 ft | 18 kts | 43° |
| 2026-04-25 22:04 | 34.85256 | -111.78473 | 4816 ft | 20 kts | 46° |
| 2026-04-25 22:05 | 34.85350 | -111.78355 | 4820 ft | 13 kts | 51° |
| 2026-04-25 22:05 | 34.85360 | -111.78326 | 4820 ft | 0 kts | 88° |
| 2026-04-25 22:05 | 34.85354 | -111.78305 | 4821 ft | 5 kts | 129° |
| 2026-04-25 22:05 | 34.85303 | -111.78295 | 4820 ft | 13 kts | 217° |
| 2026-04-25 22:06 | 34.85181 | -111.78444 | 4814 ft | 48 kts | 224° |
| 2026-04-25 22:06 | 34.84792 | -111.78913 | 4799 ft | 102 kts | 221° |
| 2026-04-25 22:06 | 34.84338 | -111.79675 | 4974 ft | 119 kts | 234° |
| 2026-04-25 22:06 | 34.83860 | -111.80472 | 5328 ft | 116 kts | 226° |
| 2026-04-25 22:07 | 34.83326 | -111.81204 | 5673 ft | 116 kts | 224° |
| 2026-04-25 22:07 | 34.82954 | -111.81682 | 5888 ft | 115 kts | 218° |
| 2026-04-25 22:07 | 34.81990 | -111.81808 | 6330 ft | 116 kts | 156° |
| 2026-04-25 22:07 | 34.81433 | -111.81066 | 6664 ft | 124 kts | 134° |
| 2026-04-25 22:08 | 34.80999 | -111.80140 | 6982 ft | 126 kts | 128° |
| 2026-04-25 22:08 | 34.80572 | -111.79192 | 7298 ft | 129 kts | 126° |
| 2026-04-25 22:08 | 34.80508 | -111.78082 | 7634 ft | 145 kts | 77° |
| 2026-04-25 22:08 | 34.81112 | -111.77073 | 7953 ft | 152 kts | 36° |
| 2026-04-25 22:09 | 34.82079 | -111.76546 | 8198 ft | 157 kts | 16° |
| 2026-04-25 22:09 | 34.83155 | -111.76127 | 8431 ft | 163 kts | 14° |
| 2026-04-25 22:09 | 34.84246 | -111.75715 | 8659 ft | 167 kts | 13° |
| 2026-04-25 22:09 | 34.85384 | -111.75292 | 8886 ft | 171 kts | 12° |
| 2026-04-25 22:10 | 34.86527 | -111.74843 | 9117 ft | 174 kts | 14° |